Terminal Aerodrome Forecast
Issued by NWS

Home | Current Version | Previous Version | Text Only | Print | Product List | Glossary On
Versions: 1 2 3 4 5 6 7 8 9 10 11 12
000
FTUS46 KSTO 190500
TAFRBL
TAF
KRBL 190532Z 1906/2006 32005KT P6SM FEW250
     FM191600 35011KT P6SM FEW250
     FM200400 32006KT P6SM FEW250=

USA.gov is the U.S. government's official web portal to all federal, state and local government web resources and services.